Chelsea, Michigan
Current Conditions -  °F | °C
As of 11:53 AM on Wednesday 22 Oct 2014 (Local Time) from KARB Reporting Station
Overcast Overcast  
Wind Chill: 43°   Ceiling: 1700
Heat Index: 48°   Visibility: 10mi
Dew Point: 38°   Wind: 10mph
Humidity: 68%   Direction: 20°NNE
Pressure: 30.34"   Gusts: NA
Location:  42.32°N, 84.02°W
Report Text: KARB 221553Z 02009KT 10SM OVC017 09/03 A3034 RMK AO2 SLP280 T00890033
Loading
Personal Weather Stations






























Interactive Weather Map
Tropical Storm Tracking
New forecast layout! Learn more

10-Day Weather Forecast

Advertisements
Track Severe Weather on mobile